createdAt,value
2023-05-19T00:01:13.692Z,59.37
2023-05-19T00:03:52.744Z,59.23
2023-05-19T00:06:26.049Z,59.22
2023-05-19T00:08:58.855Z,59.76
2023-05-19T00:11:27.859Z,59.34
2023-05-19T00:13:56.942Z,59.19
2023-05-19T00:16:26.708Z,59.23
2023-05-19T00:18:55.046Z,59.19
2023-05-19T00:21:24.572Z,59.51
2023-05-19T00:23:52.739Z,59.19
2023-05-19T00:26:21.979Z,59.63
2023-05-19T00:28:50.807Z,58.71
2023-05-19T00:31:18.922Z,59.06
2023-05-19T00:33:47.203Z,59.38
2023-05-19T00:36:15.254Z,59.35
2023-05-19T00:38:44.727Z,59.20
2023-05-19T00:41:13.047Z,59.26
2023-05-19T00:43:41.295Z,59.81
2023-05-19T00:46:11.125Z,59.56
2023-05-19T00:48:39.301Z,59.53
2023-05-19T00:51:07.707Z,59.62
2023-05-19T00:53:36.743Z,59.97
2023-05-19T00:56:06.482Z,60.00
2023-05-19T00:58:35.010Z,59.82
2023-05-19T01:01:04.696Z,59.40
2023-05-19T01:03:35.162Z,59.64
2023-05-19T01:06:05.304Z,59.35
2023-05-19T01:08:34.009Z,59.67
2023-05-19T01:11:03.389Z,59.54
2023-05-19T01:13:33.297Z,59.33
2023-05-19T01:16:06.976Z,59.33
2023-05-19T01:18:48.633Z,60.01
2023-05-19T01:21:49.995Z,59.88
2023-05-19T01:24:46.969Z,59.68
2023-05-19T01:27:43.333Z,59.83
2023-05-19T01:30:35.322Z,59.52
2023-05-19T01:33:07.965Z,59.72
2023-05-19T01:35:37.966Z,60.15
2023-05-19T01:38:08.883Z,59.65
2023-05-19T01:40:38.834Z,59.61
2023-05-19T01:43:10.666Z,60.68
2023-05-19T01:45:41.405Z,60.10
2023-05-19T01:48:11.113Z,60.39
2023-05-19T01:50:39.504Z,60.77
2023-05-19T01:53:07.734Z,60.36
2023-05-19T01:55:37.169Z,60.11
2023-05-19T01:58:16.851Z,60.54
2023-05-19T02:00:54.534Z,60.03
2023-05-19T02:03:39.693Z,61.13
2023-05-19T02:06:20.518Z,60.29
2023-05-19T02:08:55.725Z,60.76
2023-05-19T02:11:31.670Z,61.06
2023-05-19T02:14:04.097Z,60.75
2023-05-19T02:16:35.826Z,61.36
2023-05-19T02:19:04.213Z,61.10
2023-05-19T02:21:32.313Z,60.81
2023-05-19T02:24:00.438Z,60.95
2023-05-19T02:26:28.513Z,60.75
2023-05-19T02:28:56.520Z,61.27
2023-05-19T02:31:24.696Z,60.69
2023-05-19T02:33:54.245Z,61.46
2023-05-19T02:36:22.462Z,61.48
2023-05-19T02:38:51.343Z,61.06
2023-05-19T02:41:19.438Z,61.72
2023-05-19T02:43:47.540Z,61.13
2023-05-19T02:46:15.671Z,61.98
2023-05-19T02:48:43.745Z,61.23
2023-05-19T02:51:13.191Z,61.76
2023-05-19T02:53:41.206Z,61.34
2023-05-19T02:56:09.280Z,61.70
2023-05-19T02:58:37.378Z,62.00
2023-05-19T03:01:05.539Z,62.03
2023-05-19T03:03:33.790Z,61.97
2023-05-19T03:06:02.615Z,61.54
2023-05-19T03:08:32.045Z,62.19
2023-05-19T03:11:00.136Z,61.54
2023-05-19T03:13:28.761Z,62.02
2023-05-19T03:15:57.995Z,62.13
2023-05-19T03:18:26.371Z,62.12
2023-05-19T03:20:55.086Z,62.26
2023-05-19T03:23:23.411Z,61.21
2023-05-19T03:25:54.249Z,62.02
2023-05-19T03:28:23.478Z,61.19
2023-05-19T03:30:51.895Z,62.19
2023-05-19T03:33:20.409Z,62.15
2023-05-19T03:35:48.835Z,61.53
2023-05-19T03:38:16.918Z,62.21
2023-05-19T03:40:45.203Z,61.35
2023-05-19T03:43:16.174Z,62.26
2023-05-19T03:45:44.342Z,62.22
2023-05-19T03:48:12.629Z,62.34
2023-05-19T03:50:40.856Z,61.74
2023-05-19T03:53:08.904Z,62.38
2023-05-19T03:55:37.583Z,62.71
2023-05-19T03:58:05.655Z,61.84
2023-05-19T04:00:35.425Z,62.02
2023-05-19T04:03:03.763Z,61.92
2023-05-19T04:05:31.929Z,62.66
2023-05-19T04:08:00.135Z,61.62
2023-05-19T04:10:28.346Z,61.91
2023-05-19T04:12:57.021Z,61.62
2023-05-19T04:15:25.223Z,62.11
2023-05-19T04:17:54.763Z,61.79
2023-05-19T04:20:23.116Z,61.31
2023-05-19T04:22:51.229Z,61.67
2023-05-19T04:25:20.173Z,61.79
2023-05-19T04:27:48.939Z,61.72
2023-05-19T04:30:22.470Z,61.59
2023-05-19T04:32:51.212Z,61.68
2023-05-19T04:35:20.762Z,62.04
2023-05-19T04:37:48.851Z,62.55
2023-05-19T04:40:17.482Z,62.15
2023-05-19T04:42:46.098Z,62.13
2023-05-19T04:45:15.020Z,62.28
2023-05-19T04:47:43.325Z,61.60
2023-05-19T04:50:12.347Z,61.79
2023-05-19T04:52:41.888Z,62.15
2023-05-19T04:55:11.472Z,61.55
2023-05-19T04:57:40.052Z,61.93
2023-05-19T05:00:13.478Z,61.65
2023-05-19T05:02:42.967Z,61.72
2023-05-19T05:05:11.697Z,61.85
2023-05-19T05:07:41.298Z,62.19
2023-05-19T05:10:10.992Z,61.51
2023-05-19T05:12:39.762Z,61.80
2023-05-19T05:15:09.240Z,61.39
2023-05-19T05:17:37.850Z,61.18
2023-05-19T05:20:07.326Z,61.31
2023-05-19T05:22:36.212Z,61.46
2023-05-19T05:25:07.284Z,61.44
2023-05-19T05:27:36.003Z,61.33
2023-05-19T05:30:04.223Z,62.56
2023-05-19T05:32:32.536Z,61.55
2023-05-19T05:35:00.863Z,61.73
2023-05-19T05:37:29.079Z,61.95
2023-05-19T05:39:57.149Z,61.52
2023-05-19T05:42:28.939Z,60.60
2023-05-19T05:44:57.771Z,61.40
2023-05-19T05:47:26.602Z,60.72
2023-05-19T05:49:55.213Z,60.57
2023-05-19T05:52:27.772Z,59.59
2023-05-19T05:54:56.496Z,59.40
2023-05-19T05:57:27.138Z,58.53
2023-05-19T05:59:55.687Z,58.08
2023-05-19T06:02:23.955Z,56.89
2023-05-19T06:04:54.346Z,55.60
2023-05-19T06:07:22.890Z,54.46
2023-05-19T06:09:51.003Z,53.82
2023-05-19T06:12:19.283Z,52.96
2023-05-19T06:14:48.800Z,51.43
2023-05-19T06:17:16.939Z,51.06
2023-05-19T06:19:45.064Z,49.80
2023-05-19T06:22:13.124Z,49.54
2023-05-19T06:24:41.199Z,49.07
2023-05-19T06:27:09.293Z,48.96
2023-05-19T06:29:37.451Z,48.29
2023-05-19T06:32:07.133Z,47.40
2023-05-19T06:34:35.288Z,47.10
2023-05-19T06:37:03.505Z,46.00
2023-05-19T06:39:31.617Z,45.77
2023-05-19T06:41:59.832Z,45.70
2023-05-19T06:44:27.975Z,44.66
2023-05-19T06:46:56.133Z,44.62
2023-05-19T06:49:29.375Z,45.17
2023-05-19T06:51:57.491Z,45.48
2023-05-19T06:54:25.581Z,45.38
2023-05-19T06:56:53.599Z,44.79
2023-05-19T06:59:23.072Z,43.93
2023-05-19T07:01:51.217Z,43.44
2023-05-19T07:04:19.313Z,43.38
2023-05-19T07:06:50.314Z,42.70
2023-05-19T07:09:18.481Z,42.44
2023-05-19T07:11:46.917Z,41.77
2023-05-19T07:14:15.001Z,41.68
2023-05-19T07:16:43.167Z,41.13
2023-05-19T07:19:11.396Z,40.58
2023-05-19T07:21:39.573Z,40.19
2023-05-19T07:24:09.504Z,40.29
2023-05-19T07:26:37.658Z,39.91
2023-05-19T07:29:05.704Z,38.57
2023-05-19T07:31:34.214Z,37.67
2023-05-19T07:34:02.334Z,36.70
2023-05-19T07:36:30.505Z,35.93
2023-05-19T07:38:58.700Z,34.75
2023-05-19T07:41:28.337Z,33.77
2023-05-19T07:43:56.395Z,33.05
2023-05-19T07:46:24.523Z,31.65
2023-05-19T07:48:52.688Z,31.63
2023-05-19T07:51:21.008Z,31.54
2023-05-19T07:53:49.148Z,31.92
2023-05-19T07:56:17.259Z,33.00
2023-05-19T07:58:46.892Z,33.59
2023-05-19T08:01:15.079Z,33.55
2023-05-19T08:03:43.268Z,33.79
2023-05-19T08:06:11.385Z,33.29
2023-05-19T08:08:39.588Z,33.71
2023-05-19T08:11:07.891Z,33.16
2023-05-19T08:13:35.951Z,33.43
2023-05-19T08:16:05.589Z,33.60
2023-05-19T08:18:33.893Z,33.10
2023-05-19T08:21:02.269Z,33.02
2023-05-19T08:23:30.468Z,31.84
2023-05-19T08:25:58.665Z,30.56
2023-05-19T08:28:26.872Z,28.37
2023-05-19T08:30:55.134Z,27.59
2023-05-19T08:33:24.858Z,25.91
2023-05-19T08:35:53.132Z,24.82
2023-05-19T08:38:21.408Z,24.40
2023-05-19T08:40:49.657Z,24.38
2023-05-19T08:43:17.929Z,25.33
2023-05-19T08:45:48.364Z,24.70
2023-05-19T08:48:18.731Z,24.53
2023-05-19T08:50:56.630Z,25.20
2023-05-19T08:53:33.101Z,27.13
2023-05-19T08:56:10.276Z,28.43
2023-05-19T08:58:41.475Z,30.32
2023-05-19T09:01:11.002Z,31.34
2023-05-19T09:03:39.799Z,32.22
2023-05-19T09:06:09.731Z,33.32
2023-05-19T09:08:37.873Z,34.15
2023-05-19T09:11:06.135Z,34.67
2023-05-19T09:13:34.588Z,33.17
2023-05-19T09:16:03.824Z,30.80
2023-05-19T09:18:32.334Z,28.35
2023-05-19T09:21:02.820Z,26.20
2023-05-19T09:23:34.064Z,25.57
2023-05-19T09:26:07.283Z,25.32
2023-05-19T09:28:37.036Z,23.19
2023-05-19T09:31:06.688Z,23.68
2023-05-19T09:33:35.870Z,24.46
2023-05-19T09:36:06.156Z,24.16
2023-05-19T09:38:36.998Z,22.82
2023-05-19T09:41:06.868Z,21.86
2023-05-19T09:43:36.615Z,20.96
2023-05-19T09:46:05.959Z,20.27
2023-05-19T09:48:34.611Z,21.32
2023-05-19T09:51:03.272Z,23.56
2023-05-19T09:53:32.632Z,24.64
2023-05-19T09:56:03.921Z,27.06
2023-05-19T09:58:34.789Z,29.32
2023-05-19T10:01:03.415Z,31.28
2023-05-19T10:03:33.007Z,33.40
2023-05-19T10:06:02.357Z,34.24
2023-05-19T10:08:31.965Z,35.28
2023-05-19T10:11:02.008Z,35.64
2023-05-19T10:13:31.127Z,35.85
2023-05-19T10:16:00.630Z,36.15
2023-05-19T10:18:29.813Z,36.53
2023-05-19T10:20:59.131Z,37.22
2023-05-19T10:25:59.177Z,37.28
2023-05-19T10:28:38.507Z,37.62
2023-05-19T10:31:09.640Z,37.11
2023-05-19T10:33:53.515Z,37.79
2023-05-19T10:36:39.383Z,37.16
2023-05-19T10:39:13.314Z,37.26
2023-05-19T10:41:48.200Z,37.13
2023-05-19T10:44:28.444Z,36.51
2023-05-19T10:46:57.280Z,36.28
2023-05-19T10:49:26.071Z,35.79
2023-05-19T10:51:57.221Z,35.49
2023-05-19T10:54:43.786Z,34.97
2023-05-19T10:57:16.448Z,35.14
2023-05-19T10:59:46.286Z,35.16
2023-05-19T11:02:40.929Z,35.33
2023-05-19T11:05:10.805Z,35.31
2023-05-19T11:07:42.445Z,35.25
2023-05-19T11:10:11.435Z,35.05
2023-05-19T11:12:44.079Z,35.35
2023-05-19T11:15:16.594Z,35.37
2023-05-19T11:17:49.761Z,35.78
2023-05-19T11:20:27.787Z,35.92
2023-05-19T11:23:09.499Z,35.75
2023-05-19T11:25:48.207Z,35.92
2023-05-19T11:28:19.537Z,35.97
2023-05-19T11:30:51.974Z,36.39
2023-05-19T11:33:21.673Z,36.57
2023-05-19T11:35:52.357Z,36.88
2023-05-19T11:38:21.066Z,37.05
2023-05-19T11:40:50.257Z,37.39
2023-05-19T11:43:18.451Z,37.35
2023-05-19T11:45:47.156Z,37.58
2023-05-19T11:48:17.519Z,37.84
2023-05-19T11:50:46.906Z,37.92
2023-05-19T11:53:15.544Z,37.84
2023-05-19T11:55:46.042Z,38.00
2023-05-19T11:58:14.421Z,37.95
2023-05-19T12:00:46.243Z,38.59
2023-05-19T12:03:14.791Z,38.50
2023-05-19T12:05:47.357Z,38.83
2023-05-19T12:08:17.776Z,38.58
2023-05-19T12:10:49.786Z,38.73
2023-05-19T12:13:18.309Z,38.59
2023-05-19T12:15:46.416Z,38.60
2023-05-19T12:18:14.586Z,38.50
2023-05-19T12:20:44.426Z,38.44
2023-05-19T12:23:13.177Z,38.74
2023-05-19T12:25:41.420Z,38.69
2023-05-19T12:28:09.470Z,38.70
2023-05-19T12:30:37.781Z,38.73
2023-05-19T12:33:06.545Z,38.61
2023-05-19T12:35:34.803Z,38.91
2023-05-19T12:38:08.264Z,39.49
2023-05-19T12:40:37.694Z,39.42
2023-05-19T12:43:07.016Z,39.51
2023-05-19T12:45:36.331Z,40.07
2023-05-19T12:48:06.751Z,40.25
2023-05-19T12:50:35.490Z,39.91
2023-05-19T12:53:03.856Z,40.24
2023-05-19T12:55:39.632Z,40.46
2023-05-19T12:58:09.083Z,39.98
2023-05-19T13:00:41.985Z,40.05
2023-05-19T13:03:16.217Z,39.82
2023-05-19T13:05:46.569Z,40.18
2023-05-19T13:08:16.614Z,39.54
2023-05-19T13:10:49.307Z,39.68
2023-05-19T13:13:18.182Z,39.69
2023-05-19T13:15:49.082Z,40.16
2023-05-19T13:18:17.632Z,40.24
2023-05-19T13:20:49.230Z,40.41
2023-05-19T13:23:17.744Z,40.61
2023-05-19T13:25:47.582Z,40.66
2023-05-19T13:28:15.953Z,40.76
2023-05-19T13:30:45.646Z,40.87
2023-05-19T13:33:13.859Z,41.00
2023-05-19T13:35:42.098Z,41.10
2023-05-19T13:38:11.148Z,40.76
2023-05-19T13:40:39.777Z,40.87
2023-05-19T13:43:09.926Z,40.86
2023-05-19T13:45:38.718Z,40.82
2023-05-19T13:48:08.216Z,40.27
2023-05-19T13:50:36.653Z,40.18
2023-05-19T13:53:05.302Z,40.61
2023-05-19T13:55:33.803Z,40.30
2023-05-19T13:58:02.038Z,40.63
2023-05-19T14:00:32.739Z,40.18
2023-05-19T14:03:01.457Z,40.68
2023-05-19T14:05:31.295Z,40.56
2023-05-19T14:08:01.122Z,40.82
2023-05-19T14:10:29.701Z,40.93
2023-05-19T14:15:34.621Z,41.30
2023-05-19T14:18:03.633Z,40.81
2023-05-19T14:20:33.535Z,41.24
2023-05-19T14:23:01.775Z,41.78
2023-05-19T14:25:29.916Z,41.66
2023-05-19T14:27:58.098Z,41.52
2023-05-19T14:30:26.191Z,41.57
2023-05-19T14:32:55.844Z,42.24
2023-05-19T14:35:24.478Z,41.94
2023-05-19T14:37:52.764Z,41.82
2023-05-19T14:40:21.079Z,42.00
2023-05-19T14:42:49.270Z,42.05
2023-05-19T14:45:17.509Z,42.30
2023-05-19T14:47:46.692Z,42.38
2023-05-19T14:50:17.214Z,42.22
2023-05-19T14:52:45.325Z,42.36
2023-05-19T14:55:13.456Z,42.58
2023-05-19T14:57:41.576Z,42.33
2023-05-19T15:00:10.540Z,42.33
2023-05-19T15:02:38.884Z,42.67
2023-05-19T15:05:07.757Z,42.83
2023-05-19T15:07:37.496Z,42.67
2023-05-19T15:10:06.575Z,42.95
2023-05-19T15:12:34.762Z,42.91
2023-05-19T15:15:02.948Z,42.87
2023-05-19T15:17:31.284Z,43.02
2023-05-19T15:19:59.610Z,43.13
2023-05-19T15:22:27.922Z,43.10
2023-05-19T15:24:57.583Z,43.53
2023-05-19T15:27:25.933Z,43.69
2023-05-19T15:29:54.073Z,43.85
2023-05-19T15:32:22.210Z,44.15
2023-05-19T15:34:50.447Z,43.99
2023-05-19T15:37:18.545Z,44.11
2023-05-19T15:39:46.641Z,44.25
2023-05-19T15:42:16.119Z,44.40
2023-05-19T15:44:46.018Z,44.27
2023-05-19T15:47:14.135Z,44.15
2023-05-19T15:49:42.234Z,44.62
2023-05-19T15:52:10.531Z,44.59
2023-05-19T15:54:38.658Z,44.75
2023-05-19T15:57:07.194Z,44.42
2023-05-19T15:59:36.769Z,44.42
2023-05-19T16:02:05.170Z,44.17
2023-05-19T16:04:33.405Z,44.26
2023-05-19T16:07:01.470Z,44.30
2023-05-19T16:09:29.684Z,44.07
2023-05-19T16:11:57.788Z,44.25
2023-05-19T16:14:29.338Z,43.81
2023-05-19T16:17:01.246Z,44.09
2023-05-19T16:19:29.460Z,44.37
2023-05-19T16:21:57.649Z,44.03
2023-05-19T16:24:25.920Z,44.46
2023-05-19T16:26:54.301Z,44.42
2023-05-19T16:29:22.419Z,44.79
2023-05-19T16:31:50.617Z,44.79
2023-05-19T16:34:20.287Z,44.90
2023-05-19T16:36:48.346Z,44.99
2023-05-19T16:39:16.591Z,45.53
2023-05-19T16:41:44.732Z,45.58
2023-05-19T16:44:14.719Z,45.51
2023-05-19T16:46:42.983Z,45.89
2023-05-19T16:49:11.367Z,46.19
2023-05-19T16:51:40.891Z,46.35
2023-05-19T16:54:09.052Z,46.18
2023-05-19T16:56:37.147Z,46.87
2023-05-19T16:59:05.320Z,47.56
2023-05-19T17:01:33.543Z,47.97
2023-05-19T17:04:01.722Z,47.89
2023-05-19T17:06:29.964Z,48.25
2023-05-19T17:08:59.538Z,48.87
2023-05-19T17:11:28.391Z,49.18
2023-05-19T17:13:56.551Z,49.38
2023-05-19T17:16:24.930Z,49.12
2023-05-19T17:18:53.233Z,49.69
2023-05-19T17:21:21.684Z,49.71
2023-05-19T17:23:49.820Z,50.16
2023-05-19T17:26:19.443Z,50.28
2023-05-19T17:28:47.568Z,50.61
2023-05-19T17:31:16.304Z,50.89
2023-05-19T17:33:44.440Z,51.35
2023-05-19T17:36:12.522Z,51.15
2023-05-19T17:38:42.097Z,51.72
2023-05-19T17:41:11.038Z,51.59
2023-05-19T17:43:41.820Z,51.77
2023-05-19T17:46:10.313Z,52.07
2023-05-19T17:48:39.724Z,52.49
2023-05-19T17:51:08.110Z,52.34
2023-05-19T17:53:37.026Z,52.47
2023-05-19T17:56:07.430Z,52.86
2023-05-19T17:58:36.228Z,53.77
2023-05-19T18:01:06.272Z,53.62
2023-05-19T18:03:35.020Z,54.23
2023-05-19T18:06:03.831Z,54.77
2023-05-19T18:08:33.669Z,55.26
2023-05-19T18:11:01.845Z,55.15
2023-05-19T18:13:29.964Z,55.35
2023-05-19T18:15:59.858Z,55.63
2023-05-19T18:18:29.593Z,55.65
2023-05-19T18:20:57.712Z,55.65
2023-05-19T18:23:25.807Z,55.70
2023-05-19T18:25:53.949Z,55.88
2023-05-19T18:28:22.112Z,55.91
2023-05-19T18:30:59.927Z,56.69
2023-05-19T18:33:31.080Z,56.54
2023-05-19T18:35:59.990Z,56.63
2023-05-19T18:38:28.117Z,56.57
2023-05-19T18:40:56.840Z,56.18
2023-05-19T18:43:25.085Z,56.25
2023-05-19T18:45:53.279Z,56.44
2023-05-19T18:48:22.539Z,56.33
2023-05-19T18:50:52.065Z,56.66
2023-05-19T18:53:20.109Z,56.50
2023-05-19T18:55:48.153Z,56.09
2023-05-19T18:58:16.314Z,56.17
2023-05-19T19:00:44.522Z,56.77
2023-05-19T19:03:12.755Z,56.83
2023-05-19T19:05:40.940Z,56.97
2023-05-19T19:08:10.514Z,57.19
2023-05-19T19:10:40.608Z,56.97
2023-05-19T19:13:08.848Z,57.55
2023-05-19T19:15:37.744Z,57.67
2023-05-19T19:18:07.459Z,57.96
2023-05-19T19:20:36.390Z,58.17
2023-05-19T19:23:06.733Z,57.83
2023-05-19T19:25:36.378Z,58.02
2023-05-19T19:28:04.612Z,57.90
2023-05-19T19:30:33.004Z,58.72
2023-05-19T19:33:01.389Z,59.68
2023-05-19T19:35:29.567Z,59.98
2023-05-19T19:37:58.611Z,60.59
2023-05-19T19:40:26.790Z,60.35
2023-05-19T19:42:57.046Z,60.54
2023-05-19T19:45:25.315Z,60.67
2023-05-19T19:47:53.664Z,60.87
2023-05-19T19:50:23.620Z,61.73
2023-05-19T19:52:51.856Z,61.88
2023-05-19T19:55:19.928Z,62.58
2023-05-19T19:57:49.569Z,62.88
2023-05-19T20:00:20.074Z,63.89
2023-05-19T20:03:03.835Z,64.09
2023-05-19T20:05:34.225Z,63.83
2023-05-19T20:08:02.340Z,63.50
2023-05-19T20:10:30.526Z,63.32
2023-05-19T20:12:59.667Z,63.66
2023-05-19T20:15:29.228Z,63.38
2023-05-19T20:17:57.362Z,64.01
2023-05-19T20:20:26.070Z,63.85
2023-05-19T20:22:54.263Z,63.79
2023-05-19T20:25:22.390Z,63.72
2023-05-19T20:27:50.502Z,63.45
2023-05-19T20:30:18.753Z,63.14
2023-05-19T20:32:48.362Z,62.84
2023-05-19T20:35:16.642Z,62.79
2023-05-19T20:37:44.807Z,62.89
2023-05-19T20:40:13.794Z,62.21
2023-05-19T20:42:42.233Z,62.16
2023-05-19T20:45:10.814Z,62.25
2023-05-19T20:47:39.204Z,62.02
2023-05-19T20:50:10.009Z,62.18
2023-05-19T20:52:38.175Z,61.93
2023-05-19T20:55:06.531Z,62.20
2023-05-19T20:57:34.962Z,61.92
2023-05-19T21:00:03.659Z,62.34
2023-05-19T21:02:31.730Z,62.35
2023-05-19T21:05:01.245Z,61.97
2023-05-19T21:07:30.858Z,62.65
2023-05-19T21:09:59.031Z,62.50
2023-05-19T21:12:33.748Z,62.46
2023-05-19T21:15:02.215Z,62.46
2023-05-19T21:17:30.632Z,62.08
2023-05-19T21:19:59.824Z,62.33
2023-05-19T21:22:28.688Z,61.95
2023-05-19T21:24:58.636Z,62.16
2023-05-19T21:27:26.800Z,62.34
2023-05-19T21:29:55.155Z,62.71
2023-05-19T21:32:23.304Z,62.69
2023-05-19T21:34:51.408Z,62.59
2023-05-19T21:37:20.431Z,62.89
2023-05-19T21:39:48.896Z,62.50
2023-05-19T21:42:18.540Z,62.70
2023-05-19T21:44:46.703Z,62.49
2023-05-19T21:47:18.024Z,62.71
2023-05-19T21:49:46.219Z,62.58
2023-05-19T21:52:14.324Z,63.03
2023-05-19T21:54:42.463Z,62.71
2023-05-19T21:57:11.267Z,62.46
2023-05-19T21:59:40.914Z,62.12
2023-05-19T22:02:09.127Z,62.38
2023-05-19T22:04:38.616Z,62.32
2023-05-19T22:07:07.684Z,62.48
2023-05-19T22:09:36.092Z,62.39
2023-05-19T22:12:04.185Z,62.53
2023-05-19T22:14:32.354Z,62.19
2023-05-19T22:17:01.847Z,62.39
2023-05-19T22:19:30.105Z,62.35
2023-05-19T22:22:09.703Z,62.34
2023-05-19T22:24:41.728Z,62.25
2023-05-19T22:27:10.081Z,62.44
2023-05-19T22:29:38.750Z,62.08
2023-05-19T22:32:12.226Z,62.57
2023-05-19T22:34:40.671Z,62.66
2023-05-19T22:37:08.748Z,62.18
2023-05-19T22:39:37.063Z,62.14
2023-05-19T22:42:05.482Z,62.21
2023-05-19T22:44:33.552Z,62.33
2023-05-19T22:47:01.613Z,62.16
2023-05-19T22:49:31.116Z,62.36
2023-05-19T22:51:59.237Z,63.02
2023-05-19T22:54:27.241Z,63.17
2023-05-19T22:56:55.914Z,63.39
2023-05-19T22:59:24.055Z,63.13
2023-05-19T23:01:52.291Z,63.26
2023-05-19T23:04:20.354Z,63.38
2023-05-19T23:06:50.606Z,62.71
2023-05-19T23:09:18.833Z,62.94
2023-05-19T23:11:47.247Z,63.01
2023-05-19T23:14:15.498Z,62.94
2023-05-19T23:16:43.679Z,62.93
2023-05-19T23:19:11.954Z,63.07
2023-05-19T23:21:40.126Z,63.48
2023-05-19T23:24:09.621Z,63.79
2023-05-19T23:26:37.655Z,63.96
2023-05-19T23:29:05.661Z,63.87
2023-05-19T23:31:34.972Z,63.21
2023-05-19T23:34:04.551Z,63.71
2023-05-19T23:36:32.741Z,63.34
2023-05-19T23:39:01.384Z,63.60
2023-05-19T23:41:31.559Z,63.70
2023-05-19T23:43:59.658Z,63.92
2023-05-19T23:46:27.966Z,63.50
2023-05-19T23:48:56.117Z,63.94
2023-05-19T23:51:24.265Z,63.34
2023-05-19T23:53:52.321Z,63.82
2023-05-19T23:56:20.447Z,63.04
2023-05-19T23:58:50.078Z,63.31
